Time;durP1;ratioP1;P1;durP2;ratioP2;P2;SDS_P1;SDS_P2;PMS_P1;PMS_P2;Temp;Humidity;BMP_temperature;BMP_pressure;BME280_temperature;BME280_humidity;BME280_pressure;Samples;Min_cycle;Max_cycle;Signal;HPM_P1;HPM_P2
2022/09/07 00:00:40;;;;;;;14.83;10.57;;;25.40;86.50;;;;;;5112222;27;20208;-69
2022/09/07 00:03:08;;;;;;;10.17;9.17;;;25.30;86.40;;;;;;5117054;27;20216;-71
2022/09/07 00:05:45;;;;;;;11.00;9.90;;;25.30;86.50;;;;;;5116523;27;20193;-69
2022/09/07 00:08:14;;;;;;;14.33;10.13;;;25.30;86.50;;;;;;5121711;27;20617;-70
2022/09/07 00:10:49;;;;;;;11.30;9.30;;;25.20;86.50;;;;;;5118353;27;20207;-70
2022/09/07 00:13:16;;;;;;;16.20;9.53;;;25.20;86.70;;;;;;5118240;27;20571;-71
2022/09/07 00:15:43;;;;;;;12.07;10.30;;;25.20;86.80;;;;;;5123171;27;20208;-71
2022/09/07 00:18:10;;;;;;;10.80;9.63;;;25.10;87.00;;;;;;5104955;27;20214;-71
2022/09/07 00:20:37;;;;;;;10.80;9.67;;;25.10;87.10;;;;;;5107267;27;20539;-71
2022/09/07 00:23:04;;;;;;;10.07;9.07;;;25.10;87.30;;;;;;5123379;27;20225;-71
2022/09/07 00:25:37;;;;;;;16.77;9.70;;;25.00;87.30;;;;;;5118297;27;20207;-71
2022/09/07 00:28:06;;;;;;;10.30;9.10;;;25.00;87.30;;;;;;5112634;27;20539;-71
2022/09/07 00:30:33;;;;;;;10.20;9.23;;;25.00;87.40;;;;;;5116620;27;20615;-71
2022/09/07 00:33:00;;;;;;;14.33;10.50;;;25.00;87.70;;;;;;5120420;27;20237;-72
2022/09/07 00:35:27;;;;;;;14.97;10.40;;;24.90;87.90;;;;;;5116841;27;20227;-69
2022/09/07 00:37:54;;;;;;;15.97;9.97;;;24.90;88.10;;;;;;5102835;27;20665;-69
2022/09/07 00:40:21;;;;;;;12.03;10.77;;;24.90;88.10;;;;;;5088187;28;20208;-70
2022/09/07 00:42:48;;;;;;;15.10;10.73;;;24.80;88.20;;;;;;5111809;27;20249;-69
2022/09/07 00:45:20;;;;;;;15.97;10.37;;;24.80;88.60;;;;;;5102225;27;20323;-72
2022/09/07 00:47:58;;;;;;;13.30;11.73;;;24.70;89.10;;;;;;5105273;27;20226;-69
2022/09/07 00:50:27;;;;;;;12.17;10.33;;;24.70;89.40;;;;;;5118065;27;20182;-69
2022/09/07 00:52:58;;;;;;;10.73;9.43;;;24.70;89.40;;;;;;5107883;27;20206;-70
2022/09/07 00:55:26;;;;;;;13.70;10.50;;;24.70;89.40;;;;;;5095691;28;20215;-69
2022/09/07 00:57:55;;;;;;;12.70;10.57;;;24.70;89.40;;;;;;5102506;28;20197;-69
2022/09/07 01:00:23;;;;;;;17.13;10.57;;;24.70;89.50;;;;;;5113047;27;20502;-69
2022/09/07 01:02:52;;;;;;;11.50;9.93;;;24.60;89.10;;;;;;5098469;28;20648;-69
2022/09/07 01:05:52;;;;;;;13.77;9.73;;;24.60;89.40;;;;;;5078910;28;20204;-69
2022/09/07 01:08:20;;;;;;;13.90;10.23;;;24.60;89.90;;;;;;5115362;27;20190;-71
2022/09/07 01:10:47;;;;;;;14.33;10.67;;;24.50;90.00;;;;;;5097516;28;20205;-71
2022/09/07 01:13:14;;;;;;;12.90;9.27;;;24.50;90.10;;;;;;5114802;27;20198;-72
2022/09/07 01:16:05;;;;;;;16.63;10.07;;;24.50;90.00;;;;;;5123769;27;20204;-71
2022/09/07 01:18:48;;;;;;;10.13;9.13;;;24.50;90.00;;;;;;5115526;27;20238;-71
2022/09/07 01:21:31;;;;;;;11.20;9.33;;;24.40;90.00;;;;;;5116379;27;20218;-71
2022/09/07 01:24:04;;;;;;;12.63;8.97;;;24.40;90.00;;;;;;5103540;28;20227;-71
2022/09/07 01:27:15;;;;;;;10.27;8.73;;;24.40;90.00;;;;;;5101936;28;20606;-71
2022/09/07 01:30:01;;;;;;;10.43;8.40;;;24.40;90.20;;;;;;5091601;28;20212;-69
2022/09/07 01:32:42;;;;;;;9.90;8.90;;;24.40;90.20;;;;;;5112656;28;20219;-69
2022/09/07 01:35:23;;;;;;;9.60;8.07;;;24.30;90.30;;;;;;5111999;28;20206;-69
2022/09/07 01:38:14;;;;;;;14.60;7.83;;;24.30;90.40;;;;;;5120857;28;20843;-71
2022/09/07 01:40:55;;;;;;;11.13;8.17;;;24.40;90.40;;;;;;5098607;28;20282;-70
2022/09/07 01:43:32;;;;;;;10.37;8.33;;;24.40;90.30;;;;;;5117851;28;20215;-70
2022/09/07 01:46:04;;;;;;;11.83;7.87;;;24.30;90.40;;;;;;5118978;28;20199;-71
2022/09/07 01:48:34;;;;;;;9.47;7.93;;;24.30;90.40;;;;;;5117965;28;20266;-70
2022/09/07 01:51:03;;;;;;;9.13;8.00;;;24.30;90.50;;;;;;5099387;28;20211;-69
2022/09/07 01:53:41;;;;;;;9.10;7.77;;;24.30;90.40;;;;;;5085331;28;20193;-70
2022/09/07 01:56:15;;;;;;;11.00;7.13;;;24.30;90.40;;;;;;5119530;28;20214;-69
2022/09/07 01:58:53;;;;;;;11.50;7.63;;;24.30;90.40;;;;;;5112602;28;20219;-70
2022/09/07 02:01:26;;;;;;;11.63;7.80;;;24.30;90.50;;;;;;5114213;28;20199;-69
2022/09/07 02:04:18;;;;;;;11.27;7.50;;;24.30;90.50;;;;;;5098951;28;20225;-70
2022/09/07 02:06:54;;;;;;;10.23;7.93;;;24.30;90.70;;;;;;5087546;28;20522;-70
2022/09/07 02:09:32;;;;;;;12.37;7.73;;;24.30;90.70;;;;;;5104974;28;20199;-70
2022/09/07 02:12:05;;;;;;;8.53;7.73;;;24.30;90.70;;;;;;5116018;28;20197;-69
2022/09/07 02:14:38;;;;;;;13.77;8.20;;;24.30;90.70;;;;;;5100314;28;20259;-71
2022/09/07 02:17:17;;;;;;;9.63;8.37;;;24.30;90.80;;;;;;5093896;28;20205;-69
2022/09/07 02:19:52;;;;;;;14.00;8.70;;;24.30;90.90;;;;;;5118561;27;20591;-69
2022/09/07 02:22:26;;;;;;;12.60;8.03;;;24.30;90.90;;;;;;5107252;28;20212;-69
2022/09/07 02:24:57;;;;;;;9.17;8.27;;;24.30;90.80;;;;;;5123749;27;20693;-72
2022/09/07 02:28:17;;;;;;;13.23;8.67;;;24.30;90.90;;;;;;5089882;27;20210;-69
2022/09/07 02:30:45;;;;;;;9.20;7.73;;;24.20;91.00;;;;;;5087692;27;20572;-69
2022/09/07 02:33:12;;;;;;;12.57;8.17;;;24.30;91.00;;;;;;5124294;27;20208;-70
2022/09/07 02:35:40;;;;;;;9.77;8.10;;;24.20;91.00;;;;;;5117854;27;20196;-70
2022/09/07 02:38:07;;;;;;;11.83;8.50;;;24.20;90.90;;;;;;5109860;27;20204;-71
2022/09/07 02:40:34;;;;;;;13.97;8.73;;;24.20;91.00;;;;;;5113365;27;20546;-69
2022/09/07 02:43:07;;;;;;;12.50;8.40;;;24.10;91.00;;;;;;5120225;27;20213;-70
2022/09/07 02:46:12;;;;;;;11.77;7.90;;;24.10;91.00;;;;;;5102469;27;20196;-71
2022/09/07 02:49:13;;;;;;;11.27;8.13;;;24.10;91.00;;;;;;5085238;27;20645;-70
2022/09/07 02:52:06;;;;;;;8.80;7.90;;;24.10;90.90;;;;;;5115973;27;20257;-71
2022/09/07 02:55:09;;;;;;;9.90;7.83;;;24.00;90.90;;;;;;5120979;27;20212;-69
2022/09/07 02:57:54;;;;;;;10.33;7.87;;;24.00;90.90;;;;;;5089581;27;20204;-70
2022/09/07 03:00:24;;;;;;;11.47;7.80;;;24.00;90.90;;;;;;5100117;27;20208;-70
2022/09/07 03:03:14;;;;;;;10.13;8.50;;;24.00;90.90;;;;;;5100203;28;20264;-69
2022/09/07 03:06:03;;;;;;;8.27;7.47;;;23.90;90.80;;;;;;5105242;28;20215;-69
2022/09/07 03:08:47;;;;;;;9.83;8.83;;;23.90;90.80;;;;;;5120258;27;20201;-70
2022/09/07 03:11:15;;;;;;;12.97;8.07;;;23.80;90.80;;;;;;5116860;27;20193;-69
2022/09/07 03:13:42;;;;;;;9.70;8.17;;;23.80;90.80;;;;;;5121940;27;20216;-69
2022/09/07 03:16:13;;;;;;;13.67;8.70;;;23.80;90.90;;;;;;5122638;27;20664;-69
2022/09/07 03:18:42;;;;;;;8.90;8.00;;;23.80;90.90;;;;;;5116666;27;20678;-69
2022/09/07 03:21:10;;;;;;;9.57;8.77;;;23.80;91.00;;;;;;5119754;27;20237;-69
2022/09/07 03:23:37;;;;;;;11.87;9.50;;;23.70;91.00;;;;;;5112292;27;20213;-69
2022/09/07 03:26:05;;;;;;;9.43;8.53;;;23.70;91.10;;;;;;5117003;27;20862;-69
2022/09/07 03:28:32;;;;;;;13.30;8.17;;;23.70;91.20;;;;;;5119665;27;20207;-69
2022/09/07 03:30:59;;;;;;;10.47;9.23;;;23.70;91.10;;;;;;5107758;27;20522;-71
2022/09/07 03:33:27;;;;;;;15.27;10.10;;;23.70;91.20;;;;;;5115227;27;20746;-71
2022/09/07 03:36:00;;;;;;;11.00;9.90;;;23.70;91.20;;;;;;5125039;27;20282;-71
2022/09/07 03:38:29;;;;;;;10.37;9.37;;;23.70;91.40;;;;;;5120329;27;20201;-69
2022/09/07 03:41:05;;;;;;;12.60;10.53;;;23.70;91.60;;;;;;5123535;27;20280;-69
2022/09/07 03:43:32;;;;;;;16.67;10.17;;;23.60;91.80;;;;;;5124177;27;20219;-69
2022/09/07 03:46:02;;;;;;;10.73;9.70;;;23.60;92.00;;;;;;5103253;28;20219;-69
2022/09/07 03:48:33;;;;;;;15.30;10.23;;;23.60;92.20;;;;;;5090227;27;20193;-69
2022/09/07 03:51:06;;;;;;;11.23;10.13;;;23.50;92.50;;;;;;5118420;27;20192;-69
2022/09/07 03:53:36;;;;;;;12.17;10.40;;;23.50;92.80;;;;;;5120941;27;20216;-69
2022/09/07 03:56:06;;;;;;;11.17;10.07;;;23.50;93.00;;;;;;5110501;27;20216;-69
2022/09/07 03:58:34;;;;;;;14.43;11.87;;;23.40;93.20;;;;;;5106944;28;20259;-69
2022/09/07 04:01:09;;;;;;;15.73;12.27;;;23.40;93.40;;;;;;5108347;27;20265;-69
2022/09/07 04:03:38;;;;;;;15.23;12.20;;;23.40;93.60;;;;;;5116280;27;20220;-69
2022/09/07 04:06:05;;;;;;;17.77;12.53;;;23.30;93.70;;;;;;5117479;27;20272;-69
2022/09/07 04:08:34;;;;;;;15.17;13.57;;;23.30;93.90;;;;;;5115058;27;20652;-69
2022/09/07 04:11:04;;;;;;;14.77;13.30;;;23.30;94.00;;;;;;5118338;27;20269;-69
2022/09/07 04:13:33;;;;;;;15.80;14.20;;;23.20;94.20;;;;;;5114780;27;20562;-69
2022/09/07 04:16:07;;;;;;;17.50;15.10;;;23.20;94.30;;;;;;5099547;27;20618;-69
2022/09/07 04:18:35;;;;;;;16.70;14.83;;;23.20;94.40;;;;;;5119090;27;20236;-69
2022/09/07 04:21:02;;;;;;;16.57;14.70;;;23.20;94.50;;;;;;5118942;27;20206;-69
2022/09/07 04:23:30;;;;;;;17.13;14.77;;;23.20;94.50;;;;;;5121455;27;20227;-69
2022/09/07 04:25:57;;;;;;;18.00;16.10;;;23.20;94.50;;;;;;5118384;27;21533;-68
2022/09/07 04:28:24;;;;;;;20.60;17.23;;;23.20;94.50;;;;;;5108385;28;20642;-69
2022/09/07 04:30:51;;;;;;;19.10;17.23;;;23.20;94.50;;;;;;5093126;28;20213;-69
2022/09/07 04:33:18;;;;;;;20.37;17.67;;;23.20;94.50;;;;;;5098227;28;20276;-71
2022/09/07 04:35:45;;;;;;;20.00;17.87;;;23.20;94.50;;;;;;5104853;28;20717;-71
2022/09/07 04:38:14;;;;;;;20.30;18.17;;;23.20;94.50;;;;;;5126195;27;20792;-70
2022/09/07 04:40:41;;;;;;;20.60;18.43;;;23.30;94.50;;;;;;5104779;27;20199;-69
2022/09/07 04:43:11;;;;;;;22.57;18.13;;;23.30;94.50;;;;;;5116768;27;20232;-69
2022/09/07 04:45:39;;;;;;;20.20;18.17;;;23.30;94.50;;;;;;5106885;27;20533;-69
2022/09/07 04:48:06;;;;;;;19.67;17.67;;;23.30;94.50;;;;;;5103484;27;20208;-70
2022/09/07 04:50:33;;;;;;;19.03;17.13;;;23.30;94.40;;;;;;5123886;27;20203;-70
2022/09/07 04:53:00;;;;;;;20.53;18.37;;;23.30;94.40;;;;;;5119589;27;20215;-69
2022/09/07 04:55:28;;;;;;;19.20;17.30;;;23.30;94.30;;;;;;5114213;27;20188;-69
2022/09/07 04:57:55;;;;;;;22.23;17.43;;;23.30;94.40;;;;;;5098937;28;20273;-70
2022/09/07 05:00:22;;;;;;;23.83;18.20;;;23.30;94.40;;;;;;5104065;28;20239;-70
2022/09/07 05:02:49;;;;;;;20.97;18.83;;;23.40;94.30;;;;;;5113325;27;20212;-69
2022/09/07 05:05:16;;;;;;;19.60;17.40;;;23.40;94.20;;;;;;5120766;27;20533;-69
2022/09/07 05:07:43;;;;;;;21.03;18.27;;;23.50;94.20;;;;;;5122916;27;20586;-69
2022/09/07 05:10:11;;;;;;;22.87;19.87;;;23.50;94.10;;;;;;5121691;27;20205;-69
2022/09/07 05:12:38;;;;;;;23.23;19.77;;;23.60;94.10;;;;;;5100453;27;20660;-69
2022/09/07 05:15:05;;;;;;;21.40;19.20;;;23.60;94.10;;;;;;5118169;27;20226;-69
2022/09/07 05:17:33;;;;;;;23.17;20.57;;;23.60;94.10;;;;;;5119809;27;20505;-69
2022/09/07 05:20:00;;;;;;;26.87;21.10;;;23.70;94.20;;;;;;5120707;27;20237;-69
2022/09/07 05:22:27;;;;;;;24.97;21.60;;;23.70;94.20;;;;;;5113263;28;20523;-69
2022/09/07 05:24:54;;;;;;;24.17;19.87;;;23.70;94.20;;;;;;5121758;28;20229;-69
2022/09/07 05:27:21;;;;;;;23.80;21.37;;;23.70;94.20;;;;;;5088841;28;20197;-69
2022/09/07 05:29:48;;;;;;;26.47;22.03;;;23.80;94.20;;;;;;5091062;28;20203;-69
2022/09/07 05:32:32;;;;;;;26.00;21.33;;;23.80;94.20;;;;;;5124181;28;20229;-69
2022/09/07 05:34:59;;;;;;;25.37;22.60;;;23.80;94.20;;;;;;5097130;28;20684;-69
2022/09/07 05:37:26;;;;;;;23.30;20.80;;;23.80;94.20;;;;;;5116247;28;20656;-69
2022/09/07 05:39:55;;;;;;;27.70;22.63;;;23.90;94.30;;;;;;5100277;28;20204;-70
2022/09/07 05:42:23;;;;;;;26.47;22.40;;;23.90;94.30;;;;;;5124883;28;20196;-69
2022/09/07 05:44:50;;;;;;;25.93;23.23;;;23.90;94.30;;;;;;5118744;28;20805;-71
2022/09/07 05:47:17;;;;;;;26.43;22.77;;;24.00;94.30;;;;;;5122256;28;20196;-72
2022/09/07 05:49:44;;;;;;;26.87;24.07;;;24.00;94.30;;;;;;5119325;28;20208;-71
2022/09/07 05:52:11;;;;;;;28.53;24.00;;;24.00;94.30;;;;;;5108010;27;20239;-72
2022/09/07 05:54:39;;;;;;;28.73;24.67;;;24.10;94.30;;;;;;5104986;28;20215;-71
2022/09/07 05:57:06;;;;;;;28.03;25.07;;;24.20;94.30;;;;;;5105323;28;20265;-71
2022/09/07 05:59:34;;;;;;;27.97;25.03;;;24.30;94.30;;;;;;5127274;27;20257;-71
2022/09/07 06:02:01;;;;;;;27.23;23.57;;;24.30;94.30;;;;;;5103504;27;20196;-71
2022/09/07 06:04:28;;;;;;;25.33;22.60;;;24.40;94.20;;;;;;5104111;27;20283;-71
2022/09/07 06:06:55;;;;;;;26.57;23.77;;;24.50;94.10;;;;;;5105196;27;20203;-71
2022/09/07 06:09:42;;;;;;;27.00;24.20;;;24.60;94.00;;;;;;5123524;27;20259;-70
2022/09/07 06:12:29;;;;;;;30.13;25.00;;;24.70;93.80;;;;;;5128144;27;20209;-70
2022/09/07 06:14:56;;;;;;;29.30;25.17;;;24.80;93.60;;;;;;5120749;27;20221;-70
2022/09/07 06:17:23;;;;;;;25.70;23.00;;;24.80;93.40;;;;;;5118542;27;20556;-72
2022/09/07 06:19:50;;;;;;;30.73;25.10;;;24.90;93.20;;;;;;5120239;27;20266;-71
2022/09/07 06:22:18;;;;;;;27.40;24.33;;;24.90;93.10;;;;;;5117257;27;20536;-71
2022/09/07 06:24:45;;;;;;;31.93;24.67;;;25.00;92.90;;;;;;5127721;27;20223;-71
2022/09/07 06:27:12;;;;;;;28.53;24.03;;;25.00;92.80;;;;;;5122364;27;20195;-71
2022/09/07 06:29:40;;;;;;;28.43;25.37;;;25.00;92.80;;;;;;5101354;27;20514;-71
2022/09/07 06:32:07;;;;;;;32.77;26.33;;;25.00;92.90;;;;;;5124226;27;20618;-71
2022/09/07 06:34:54;;;;;;;30.07;26.60;;;25.00;93.00;;;;;;5100645;28;20645;-71
2022/09/07 06:37:21;;;;;;;31.23;26.90;;;25.10;92.90;;;;;;5121392;27;20558;-71
2022/09/07 06:39:48;;;;;;;32.43;25.77;;;25.20;93.00;;;;;;5122429;27;20214;-71
2022/09/07 06:42:15;;;;;;;31.73;27.50;;;25.20;93.00;;;;;;5106105;27;20643;-71
2022/09/07 06:44:43;;;;;;;31.90;27.97;;;25.30;92.80;;;;;;5101819;27;20220;-70
2022/09/07 06:47:10;;;;;;;32.63;28.30;;;25.40;92.60;;;;;;5103671;28;20210;-71
2022/09/07 06:49:38;;;;;;;34.67;26.70;;;25.50;92.50;;;;;;5125042;27;20220;-71
2022/09/07 06:52:05;;;;;;;35.43;28.33;;;25.50;92.20;;;;;;5129332;27;20198;-72
2022/09/07 06:54:32;;;;;;;32.27;28.63;;;25.50;92.30;;;;;;5123752;27;20204;-72
2022/09/07 06:57:19;;;;;;;35.30;28.30;;;25.50;92.10;;;;;;5124864;27;20220;-70
2022/09/07 06:59:46;;;;;;;34.97;29.73;;;25.40;92.20;;;;;;5122090;27;20197;-70
2022/09/07 07:02:13;;;;;;;36.00;27.87;;;25.30;92.30;;;;;;5121897;27;20538;-70
2022/09/07 07:04:41;;;;;;;33.83;29.77;;;25.30;92.40;;;;;;5116718;27;20237;-70
2022/09/07 07:07:12;;;;;;;38.17;29.87;;;25.30;92.40;;;;;;5126101;27;20202;-71
2022/09/07 07:09:40;;;;;;;39.67;29.60;;;25.30;92.40;;;;;;5098266;27;20200;-71
2022/09/07 07:12:08;;;;;;;39.27;28.10;;;25.30;92.50;;;;;;5118179;27;20200;-70
2022/09/07 07:14:35;;;;;;;35.17;27.57;;;25.30;92.40;;;;;;5122430;27;20190;-70
2022/09/07 07:17:08;;;;;;;32.83;26.97;;;25.40;92.30;;;;;;5121413;27;20230;-70
2022/09/07 07:19:35;;;;;;;33.90;26.67;;;25.40;92.20;;;;;;5117861;27;20237;-71
2022/09/07 07:22:02;;;;;;;28.43;25.23;;;25.50;92.20;;;;;;5121441;27;20219;-70
2022/09/07 07:24:49;;;;;;;28.20;25.23;;;25.50;92.20;;;;;;5091915;28;20214;-72
2022/09/07 07:27:16;;;;;;;28.80;25.27;;;25.60;92.00;;;;;;5095785;27;20697;-70
2022/09/07 07:29:44;;;;;;;26.60;24.10;;;25.60;91.80;;;;;;5115690;27;20200;-70
2022/09/07 07:32:11;;;;;;;30.10;24.67;;;25.60;91.80;;;;;;5124807;27;20287;-71
2022/09/07 07:34:39;;;;;;;27.77;24.87;;;25.60;91.60;;;;;;5124276;27;20196;-70
2022/09/07 07:37:06;;;;;;;28.13;25.27;;;25.60;91.50;;;;;;5113262;27;20216;-70
2022/09/07 07:39:33;;;;;;;28.27;25.47;;;25.60;91.40;;;;;;5103226;28;20213;-71
2022/09/07 07:42:20;;;;;;;30.07;26.83;;;25.60;91.50;;;;;;5112231;27;20618;-71
2022/09/07 07:44:47;;;;;;;29.57;26.77;;;25.70;91.60;;;;;;5102784;28;20229;-71
2022/09/07 07:47:15;;;;;;;27.30;24.57;;;25.70;91.70;;;;;;5127314;27;20197;-71
2022/09/07 07:49:43;;;;;;;27.40;24.83;;;25.70;91.50;;;;;;5123448;27;20618;-72
2022/09/07 07:52:10;;;;;;;29.03;25.97;;;25.80;91.40;;;;;;5098433;28;20216;-70
2022/09/07 07:54:57;;;;;;;28.97;26.27;;;25.80;91.30;;;;;;5097508;28;20291;-71
2022/09/07 07:57:24;;;;;;;26.60;24.00;;;25.80;91.30;;;;;;5107658;27;20196;-71
2022/09/07 07:59:51;;;;;;;28.00;25.00;;;25.80;91.20;;;;;;5105387;27;20288;-71
2022/09/07 08:02:19;;;;;;;29.50;25.13;;;25.90;91.20;;;;;;5120251;27;20208;-71
2022/09/07 08:04:46;;;;;;;27.33;24.67;;;25.90;91.00;;;;;;5119835;27;20209;-72
2022/09/07 08:07:14;;;;;;;26.93;24.10;;;25.90;90.90;;;;;;5104150;27;20198;-71
2022/09/07 08:09:43;;;;;;;27.77;25.27;;;25.90;91.00;;;;;;5114854;27;20187;-70
2022/09/07 08:12:12;;;;;;;26.17;23.37;;;26.00;91.00;;;;;;5117621;27;20300;-70
2022/09/07 08:14:40;;;;;;;27.10;24.47;;;26.10;90.60;;;;;;5101608;28;20208;-71
2022/09/07 08:17:10;;;;;;;25.17;22.60;;;26.20;90.30;;;;;;5085543;27;20221;-71
2022/09/07 08:19:37;;;;;;;25.00;22.63;;;26.20;90.20;;;;;;5102192;27;20231;-71
2022/09/07 08:22:05;;;;;;;22.97;20.73;;;26.40;90.30;;;;;;5105805;27;20235;-70
2022/09/07 08:24:32;;;;;;;23.13;20.90;;;26.60;90.10;;;;;;5104855;27;20222;-71
2022/09/07 08:26:59;;;;;;;23.27;20.80;;;26.80;90.00;;;;;;5121600;27;20184;-70
2022/09/07 08:29:27;;;;;;;23.07;20.73;;;26.90;87.80;;;;;;5121649;27;20210;-71
2022/09/07 08:31:59;;;;;;;23.90;21.70;;;27.00;86.70;;;;;;5097339;28;20197;-72
2022/09/07 08:34:26;;;;;;;21.67;19.57;;;27.10;86.40;;;;;;5114440;27;20242;-72
2022/09/07 08:36:53;;;;;;;21.47;19.33;;;27.40;86.40;;;;;;5117927;27;20238;-71
2022/09/07 08:39:23;;;;;;;22.23;19.47;;;27.50;83.80;;;;;;5120421;27;20204;-72
2022/09/07 08:42:16;;;;;;;23.13;19.67;;;27.70;82.80;;;;;;5102028;28;20292;-72
2022/09/07 08:44:49;;;;;;;22.87;18.63;;;27.70;82.00;;;;;;5098024;27;20231;-72
2022/09/07 08:47:36;;;;;;;19.23;17.33;;;27.70;82.80;;;;;;5122888;27;20231;-72
2022/09/07 08:50:06;;;;;;;17.57;15.77;;;27.80;82.40;;;;;;5099533;27;20262;-72
2022/09/07 08:52:48;;;;;;;18.47;16.60;;;28.00;81.90;;;;;;5099662;27;20207;-72
2022/09/07 08:55:30;;;;;;;17.70;15.93;;;28.10;79.20;;;;;;5097498;28;20204;-72
2022/09/07 08:58:19;;;;;;;17.43;15.73;;;28.10;79.20;;;;;;5096963;28;20208;-72
2022/09/07 09:01:14;;;;;;;17.03;14.43;;;28.20;79.40;;;;;;5116811;27;20196;-72
2022/09/07 09:03:57;;;;;;;15.80;14.27;;;28.40;77.70;;;;;;5102398;28;20200;-71
2022/09/07 09:07:19;;;;;;;14.77;13.00;;;28.60;76.90;;;;;;5102014;27;20196;-72
2022/09/07 09:10:01;;;;;;;15.07;13.47;;;28.80;75.60;;;;;;5114871;27;20223;-72
2022/09/07 09:12:56;;;;;;;14.63;13.13;;;29.00;74.60;;;;;;5118129;27;20221;-72
2022/09/07 09:15:51;;;;;;;13.63;12.23;;;29.10;73.60;;;;;;5092373;27;20219;-72
2022/09/07 09:18:48;;;;;;;14.97;13.37;;;29.20;74.00;;;;;;5116209;27;20200;-71
2022/09/07 09:21:17;;;;;;;16.17;13.53;;;29.30;72.40;;;;;;5122116;27;20200;-72
2022/09/07 09:23:48;;;;;;;13.80;12.53;;;29.40;72.80;;;;;;5111628;27;20208;-72
2022/09/07 09:26:24;;;;;;;12.70;11.67;;;29.50;72.70;;;;;;5099242;28;20209;-72
2022/09/07 09:28:51;;;;;;;14.90;12.43;;;29.70;72.90;;;;;;5125009;27;20207;-71
2022/09/07 09:31:32;;;;;;;11.50;10.57;;;29.70;71.50;;;;;;5117906;28;20255;-71
2022/09/07 09:34:14;;;;;;;13.20;11.40;;;29.60;71.70;;;;;;5120571;28;20195;-72
2022/09/07 09:36:48;;;;;;;12.90;11.60;;;29.70;72.60;;;;;;5097445;28;20209;-72
2022/09/07 09:39:35;;;;;;;13.37;10.80;;;29.80;72.30;;;;;;5120182;28;20249;-72
2022/09/07 09:42:16;;;;;;;11.87;10.87;;;30.10;71.90;;;;;;5108727;28;20189;-71
2022/09/07 09:44:44;;;;;;;12.20;9.87;;;30.30;71.30;;;;;;5114465;28;20557;-72
2022/09/07 09:47:37;;;;;;;11.53;10.53;;;30.40;69.60;;;;;;5101794;28;20351;-72
2022/09/07 09:50:14;;;;;;;8.43;7.77;;;30.70;69.10;;;;;;5115248;28;20294;-70
2022/09/07 09:53:03;;;;;;;14.03;10.17;;;30.70;67.90;;;;;;5101921;28;20201;-71
2022/09/07 09:55:40;;;;;;;13.13;9.80;;;30.80;67.60;;;;;;5118711;28;20235;-74
2022/09/07 09:58:26;;;;;;;10.13;9.17;;;30.90;66.60;;;;;;5101686;28;20222;-73
2022/09/07 10:01:44;;;;;;;13.27;9.37;;;30.80;67.40;;;;;;5102492;28;20196;-71
2022/09/07 10:04:33;;;;;;;10.30;9.30;;;31.00;67.40;;;;;;5103121;28;20227;-72
2022/09/07 10:07:15;;;;;;;9.33;8.43;;;31.00;66.90;;;;;;5108208;28;20209;-71
2022/09/07 10:09:49;;;;;;;11.53;9.17;;;31.10;66.90;;;;;;5089230;28;20192;-72
2022/09/07 10:12:28;;;;;;;10.30;9.40;;;31.10;65.90;;;;;;5082386;28;20536;-71
2022/09/07 10:14:55;;;;;;;9.53;8.63;;;31.20;66.20;;;;;;5102745;28;20206;-71
2022/09/07 10:17:49;;;;;;;12.53;7.03;;;31.40;65.70;;;;;;5102394;28;20266;-71
2022/09/07 10:20:16;;;;;;;9.27;7.10;;;31.40;65.60;;;;;;5098884;28;20839;-72
2022/09/07 10:23:04;;;;;;;8.50;6.23;;;31.60;63.70;;;;;;5112788;28;20379;-72
2022/09/07 10:25:33;;;;;;;9.67;6.33;;;31.60;63.20;;;;;;5094626;28;20281;-72
2022/09/07 10:28:12;;;;;;;6.57;5.37;;;31.70;63.60;;;;;;5119496;28;20192;-72
2022/09/07 10:30:54;;;;;;;8.30;5.07;;;31.80;63.10;;;;;;5115045;28;20644;-72
2022/09/07 10:33:46;;;;;;;6.73;4.40;;;31.90;62.40;;;;;;5094356;28;20200;-71
2022/09/07 10:36:57;;;;;;;8.20;3.90;;;32.00;61.00;;;;;;5117469;28;20257;-72
2022/09/07 10:39:34;;;;;;;7.60;4.90;;;32.20;61.00;;;;;;5122253;27;20823;-72
2022/09/07 10:42:27;;;;;;;5.50;4.90;;;32.40;61.60;;;;;;5122888;27;20588;-71
2022/09/07 10:45:42;;;;;;;5.47;4.37;;;32.70;60.70;;;;;;5118657;27;20224;-72
2022/09/07 10:48:20;;;;;;;5.27;4.50;;;32.80;61.00;;;;;;5105992;27;20216;-72
2022/09/07 10:50:55;;;;;;;5.23;3.67;;;32.80;59.70;;;;;;5087241;28;20201;-72
2022/09/07 10:53:29;;;;;;;7.37;3.90;;;32.80;57.60;;;;;;5104639;27;20219;-70
2022/09/07 10:56:26;;;;;;;6.47;4.03;;;32.80;57.70;;;;;;5124869;27;20291;-71
2022/09/07 10:59:23;;;;;;;4.63;3.43;;;32.80;58.80;;;;;;5117344;27;20222;-71
2022/09/07 11:02:18;;;;;;;8.33;3.63;;;32.90;56.70;;;;;;5104523;27;20208;-71
2022/09/07 11:05:15;;;;;;;6.63;3.67;;;32.90;57.10;;;;;;5102579;27;20212;-71
2022/09/07 11:07:52;;;;;;;4.60;3.47;;;33.00;57.00;;;;;;5086341;27;20209;-71
2022/09/07 11:10:27;;;;;;;11.57;3.73;;;33.20;56.10;;;;;;5099019;28;20219;-71
2022/09/07 11:12:59;;;;;;;4.83;3.83;;;33.20;55.40;;;;;;5110475;27;20319;-71
2022/09/07 11:15:38;;;;;;;7.80;3.80;;;33.10;55.60;;;;;;5121032;27;20201;-71
2022/09/07 11:18:13;;;;;;;6.37;4.00;;;32.80;56.50;;;;;;5104717;27;20303;-71
2022/09/07 11:20:42;;;;;;;7.57;3.20;;;32.60;56.70;;;;;;5068428;28;20233;-71
2022/09/07 11:23:40;;;;;;;7.50;3.23;;;32.40;57.40;;;;;;5065657;28;20218;-71
2022/09/07 11:26:30;;;;;;;8.80;4.30;;;32.20;57.50;;;;;;5070091;28;20222;-71
2022/09/07 11:29:05;;;;;;;4.07;3.50;;;32.20;59.10;;;;;;5061198;28;20233;-71
2022/09/07 11:32:32;;;;;;;8.77;3.87;;;32.20;59.30;;;;;;5065009;28;20198;-71
2022/09/07 11:35:18;;;;;;;5.30;3.90;;;32.10;60.00;;;;;;5052060;28;20218;-71
2022/09/07 11:37:58;;;;;;;5.57;3.90;;;32.10;60.90;;;;;;5052441;28;20220;-71
2022/09/07 11:40:41;;;;;;;5.60;3.40;;;32.20;60.60;;;;;;5064648;28;20274;-71
2022/09/07 11:43:30;;;;;;;7.80;3.90;;;32.40;60.20;;;;;;5064709;28;20264;-71
2022/09/07 11:46:06;;;;;;;9.17;3.60;;;32.80;59.80;;;;;;5065003;28;20241;-71
2022/09/07 11:49:23;;;;;;;6.77;3.10;;;33.00;59.70;;;;;;5065733;28;20273;-71
2022/09/07 11:52:07;;;;;;;6.27;3.33;;;33.20;57.60;;;;;;4990974;28;20271;-72
2022/09/07 11:54:38;;;;;;;6.83;3.70;;;33.10;57.20;;;;;;5062386;28;20543;-71
2022/09/07 11:57:37;;;;;;;4.10;3.70;;;33.00;58.60;;;;;;5061637;28;20670;-71
2022/09/07 12:00:21;;;;;;;6.33;3.53;;;33.10;59.20;;;;;;5056133;28;20210;-71
2022/09/07 12:02:51;;;;;;;7.77;3.40;;;33.30;58.80;;;;;;5065809;28;20206;-71
2022/09/07 12:05:44;;;;;;;4.37;3.43;;;33.40;57.60;;;;;;5065381;28;20220;-72
2022/09/07 12:08:11;;;;;;;10.73;3.33;;;33.50;58.20;;;;;;5066988;28;20773;-71
2022/09/07 12:10:46;;;;;;;6.30;4.23;;;33.50;58.10;;;;;;5064841;28;20221;-71
2022/09/07 12:13:38;;;;;;;8.87;3.67;;;33.40;56.60;;;;;;5064900;28;20645;-70
2022/09/07 12:16:34;;;;;;;3.73;2.73;;;33.10;57.00;;;;;;5065401;28;20194;-70
2022/09/07 12:19:21;;;;;;;6.53;3.63;;;32.70;58.40;;;;;;5048262;27;20520;-70
2022/09/07 12:21:58;;;;;;;7.17;3.67;;;32.40;60.50;;;;;;5114560;27;20622;-73
2022/09/07 12:24:34;;;;;;;7.73;3.47;;;32.40;59.60;;;;;;5122076;27;20208;-72
2022/09/07 12:27:20;;;;;;;4.27;2.97;;;32.50;59.80;;;;;;5104105;27;20204;-73
2022/09/07 12:30:09;;;;;;;10.77;3.63;;;32.70;59.60;;;;;;5104577;27;20266;-71
2022/09/07 12:32:54;;;;;;;6.27;3.97;;;33.00;60.00;;;;;;5030260;28;20229;-71
2022/09/07 12:35:29;;;;;;;6.37;3.33;;;33.30;58.70;;;;;;5116220;27;20683;-71
2022/09/07 12:37:57;;;;;;;6.83;3.50;;;33.40;58.50;;;;;;5109870;27;20253;-72
2022/09/07 12:40:31;;;;;;;8.57;3.47;;;33.40;57.90;;;;;;5123577;27;20204;-72
2022/09/07 12:43:13;;;;;;;9.17;3.73;;;33.20;57.70;;;;;;5121902;27;20626;-70
2022/09/07 12:45:40;;;;;;;5.73;3.57;;;32.80;58.10;;;;;;5116280;27;20251;-70
2022/09/07 12:48:13;;;;;;;5.63;3.43;;;32.50;58.90;;;;;;5105683;28;20578;-70
2022/09/07 12:50:50;;;;;;;7.23;3.70;;;32.20;59.70;;;;;;5120636;27;20197;-71
2022/09/07 12:53:53;;;;;;;7.57;3.30;;;32.20;60.00;;;;;;5119227;27;20215;-71
2022/09/07 12:57:00;;;;;;;6.40;3.53;;;32.30;59.60;;;;;;5119160;27;20211;-71
2022/09/07 13:00:13;;;;;;;9.50;3.87;;;32.40;59.00;;;;;;5097762;27;20258;-70
2022/09/07 13:03:30;;;;;;;5.53;2.73;;;32.60;59.30;;;;;;5074243;27;20228;-71
2022/09/07 13:06:54;;;;;;;8.40;3.23;;;32.70;56.80;;;;;;5008454;28;20306;-71
2022/09/07 13:09:37;;;;;;;5.10;2.97;;;32.80;57.00;;;;;;5010928;28;20632;-71
2022/09/07 13:12:30;;;;;;;8.07;2.73;;;32.80;56.70;;;;;;5119541;27;20196;-71
2022/09/07 13:15:38;;;;;;;7.73;2.80;;;32.80;55.60;;;;;;5120401;27;20231;-70
2022/09/07 13:18:29;;;;;;;9.50;3.17;;;32.80;56.20;;;;;;5117615;27;20570;-71